sensor_id;sensor_type;location;lat;lon;timestamp;P1;durP1;ratioP1;P2;durP2;ratioP2
68247;SDS011;55064;49.636;12.164;2023-05-23T00:01:16;17.60;;;9.85;;
68247;SDS011;55064;49.636;12.164;2023-05-23T00:03:50;15.00;;;9.95;;
68247;SDS011;55064;49.636;12.164;2023-05-23T00:13:01;14.27;;;10.02;;
68247;SDS011;55064;49.636;12.164;2023-05-23T00:24:19;18.88;;;10.82;;
68247;SDS011;55064;49.636;12.164;2023-05-23T00:26:51;16.38;;;10.60;;
68247;SDS011;55064;49.636;12.164;2023-05-23T00:32:22;17.38;;;11.30;;
68247;SDS011;55064;49.636;12.164;2023-05-23T00:37:58;16.75;;;10.75;;
68247;SDS011;55064;49.636;12.164;2023-05-23T00:40:29;17.38;;;10.52;;
68247;SDS011;55064;49.636;12.164;2023-05-23T00:45:40;14.20;;;9.63;;
68247;SDS011;55064;49.636;12.164;2023-05-23T00:48:05;16.47;;;10.00;;
68247;SDS011;55064;49.636;12.164;2023-05-23T00:50:32;16.73;;;10.43;;
68247;SDS011;55064;49.636;12.164;2023-05-23T00:53:00;16.52;;;10.10;;
68247;SDS011;55064;49.636;12.164;2023-05-23T00:55:26;17.35;;;10.73;;
68247;SDS011;55064;49.636;12.164;2023-05-23T00:57:53;15.35;;;10.38;;
68247;SDS011;55064;49.636;12.164;2023-05-23T01:00:22;16.60;;;10.87;;
68247;SDS011;55064;49.636;12.164;2023-05-23T01:02:51;16.40;;;10.50;;
68247;SDS011;55064;49.636;12.164;2023-05-23T01:05:19;20.20;;;10.88;;
68247;SDS011;55064;49.636;12.164;2023-05-23T01:07:46;15.77;;;10.93;;
68247;SDS011;55064;49.636;12.164;2023-05-23T01:10:15;17.27;;;11.35;;
68247;SDS011;55064;49.636;12.164;2023-05-23T01:18:30;15.73;;;10.77;;
68247;SDS011;55064;49.636;12.164;2023-05-23T01:21:08;16.98;;;11.23;;
68247;SDS011;55064;49.636;12.164;2023-05-23T01:29:55;17.27;;;11.50;;
68247;SDS011;55064;49.636;12.164;2023-05-23T01:31:59;18.52;;;11.75;;
68247;SDS011;55064;49.636;12.164;2023-05-23T01:34:29;20.20;;;11.68;;
68247;SDS011;55064;49.636;12.164;2023-05-23T01:36:57;20.92;;;11.82;;
68247;SDS011;55064;49.636;12.164;2023-05-23T01:39:23;19.33;;;11.40;;
68247;SDS011;55064;49.636;12.164;2023-05-23T01:41:48;17.87;;;11.80;;
68247;SDS011;55064;49.636;12.164;2023-05-23T01:44:18;18.80;;;11.75;;
68247;SDS011;55064;49.636;12.164;2023-05-23T01:46:46;20.00;;;12.60;;
68247;SDS011;55064;49.636;12.164;2023-05-23T01:49:12;18.43;;;11.70;;
68247;SDS011;55064;49.636;12.164;2023-05-23T01:51:40;19.73;;;11.77;;
68247;SDS011;55064;49.636;12.164;2023-05-23T01:54:06;16.77;;;11.20;;
68247;SDS011;55064;49.636;12.164;2023-05-23T01:56:32;18.67;;;12.30;;
68247;SDS011;55064;49.636;12.164;2023-05-23T01:58:58;19.13;;;12.30;;
68247;SDS011;55064;49.636;12.164;2023-05-23T02:01:23;19.15;;;12.57;;
68247;SDS011;55064;49.636;12.164;2023-05-23T02:03:49;20.27;;;12.23;;
68247;SDS011;55064;49.636;12.164;2023-05-23T02:06:17;20.50;;;12.60;;
68247;SDS011;55064;49.636;12.164;2023-05-23T02:08:59;20.55;;;12.10;;
68247;SDS011;55064;49.636;12.164;2023-05-23T02:19:49;19.85;;;12.00;;
68247;SDS011;55064;49.636;12.164;2023-05-23T02:28:58;20.45;;;11.85;;
68247;SDS011;55064;49.636;12.164;2023-05-23T02:37:34;21.23;;;11.70;;
68247;SDS011;55064;49.636;12.164;2023-05-23T02:46:27;17.55;;;10.95;;
68247;SDS011;55064;49.636;12.164;2023-05-23T02:48:52;17.87;;;11.20;;
68247;SDS011;55064;49.636;12.164;2023-05-23T02:51:18;20.67;;;11.40;;
68247;SDS011;55064;49.636;12.164;2023-05-23T02:53:43;19.92;;;11.48;;
68247;SDS011;55064;49.636;12.164;2023-05-23T02:56:08;19.07;;;11.10;;
68247;SDS011;55064;49.636;12.164;2023-05-23T02:58:34;19.30;;;12.37;;
68247;SDS011;55064;49.636;12.164;2023-05-23T03:01:03;22.83;;;11.88;;
68247;SDS011;55064;49.636;12.164;2023-05-23T03:03:28;18.70;;;11.97;;
68247;SDS011;55064;49.636;12.164;2023-05-23T03:05:55;19.35;;;12.23;;
68247;SDS011;55064;49.636;12.164;2023-05-23T03:08:22;19.35;;;11.32;;
68247;SDS011;55064;49.636;12.164;2023-05-23T03:10:47;17.73;;;11.40;;
68247;SDS011;55064;49.636;12.164;2023-05-23T03:13:13;18.30;;;11.82;;
68247;SDS011;55064;49.636;12.164;2023-05-23T03:15:38;19.57;;;11.60;;
68247;SDS011;55064;49.636;12.164;2023-05-23T03:18:03;17.63;;;11.70;;
68247;SDS011;55064;49.636;12.164;2023-05-23T03:20:29;17.80;;;11.60;;
68247;SDS011;55064;49.636;12.164;2023-05-23T03:22:54;18.45;;;11.57;;
68247;SDS011;55064;49.636;12.164;2023-05-23T03:25:19;18.10;;;11.50;;
68247;SDS011;55064;49.636;12.164;2023-05-23T03:27:45;19.77;;;11.60;;
68247;SDS011;55064;49.636;12.164;2023-05-23T03:30:10;19.67;;;11.43;;
68247;SDS011;55064;49.636;12.164;2023-05-23T03:32:39;18.98;;;12.20;;
68247;SDS011;55064;49.636;12.164;2023-05-23T03:35:06;19.17;;;12.07;;
68247;SDS011;55064;49.636;12.164;2023-05-23T03:37:32;19.88;;;11.85;;
68247;SDS011;55064;49.636;12.164;2023-05-23T03:40:00;18.80;;;11.43;;
68247;SDS011;55064;49.636;12.164;2023-05-23T03:42:27;18.88;;;12.25;;
68247;SDS011;55064;49.636;12.164;2023-05-23T03:44:52;21.90;;;12.87;;
68247;SDS011;55064;49.636;12.164;2023-05-23T03:47:18;19.17;;;12.73;;
68247;SDS011;55064;49.636;12.164;2023-05-23T03:49:43;18.30;;;11.83;;
68247;SDS011;55064;49.636;12.164;2023-05-23T03:52:09;18.37;;;11.93;;
68247;SDS011;55064;49.636;12.164;2023-05-23T03:54:34;18.85;;;12.50;;
68247;SDS011;55064;49.636;12.164;2023-05-23T03:57:00;19.33;;;11.83;;
68247;SDS011;55064;49.636;12.164;2023-05-23T03:59:26;19.25;;;12.60;;
68247;SDS011;55064;49.636;12.164;2023-05-23T04:01:52;19.33;;;12.00;;
68247;SDS011;55064;49.636;12.164;2023-05-23T04:04:20;20.53;;;12.23;;
68247;SDS011;55064;49.636;12.164;2023-05-23T04:06:45;21.83;;;13.02;;
68247;SDS011;55064;49.636;12.164;2023-05-23T04:09:13;20.67;;;12.37;;
68247;SDS011;55064;49.636;12.164;2023-05-23T04:11:39;20.55;;;12.98;;
68247;SDS011;55064;49.636;12.164;2023-05-23T04:14:10;19.10;;;12.33;;
68247;SDS011;55064;49.636;12.164;2023-05-23T04:25:57;19.55;;;12.02;;
68247;SDS011;55064;49.636;12.164;2023-05-23T04:40:39;21.35;;;12.93;;
68247;SDS011;55064;49.636;12.164;2023-05-23T04:43:23;22.63;;;12.53;;
68247;SDS011;55064;49.636;12.164;2023-05-23T04:48:56;19.63;;;12.00;;
68247;SDS011;55064;49.636;12.164;2023-05-23T04:57:06;18.83;;;11.33;;
68247;SDS011;55064;49.636;12.164;2023-05-23T04:59:39;17.00;;;11.48;;
68247;SDS011;55064;49.636;12.164;2023-05-23T05:02:08;17.75;;;11.25;;
68247;SDS011;55064;49.636;12.164;2023-05-23T05:07:29;18.90;;;11.43;;
68247;SDS011;55064;49.636;12.164;2023-05-23T05:09:55;17.60;;;11.00;;
68247;SDS011;55064;49.636;12.164;2023-05-23T05:12:20;18.53;;;11.33;;
68247;SDS011;55064;49.636;12.164;2023-05-23T05:14:48;20.73;;;11.48;;
68247;SDS011;55064;49.636;12.164;2023-05-23T05:17:14;18.53;;;11.30;;
68247;SDS011;55064;49.636;12.164;2023-05-23T05:19:39;17.90;;;12.05;;
68247;SDS011;55064;49.636;12.164;2023-05-23T05:22:05;19.17;;;11.77;;
68247;SDS011;55064;49.636;12.164;2023-05-23T05:24:32;18.92;;;12.13;;
68247;SDS011;55064;49.636;12.164;2023-05-23T05:26:57;18.67;;;11.40;;
68247;SDS011;55064;49.636;12.164;2023-05-23T05:29:23;18.20;;;11.77;;
68247;SDS011;55064;49.636;12.164;2023-05-23T05:31:49;19.55;;;11.27;;
68247;SDS011;55064;49.636;12.164;2023-05-23T05:34:16;18.00;;;11.55;;
68247;SDS011;55064;49.636;12.164;2023-05-23T05:36:42;19.93;;;11.50;;
68247;SDS011;55064;49.636;12.164;2023-05-23T05:39:13;16.85;;;10.77;;
68247;SDS011;55064;49.636;12.164;2023-05-23T05:41:44;20.63;;;11.98;;
68247;SDS011;55064;49.636;12.164;2023-05-23T05:44:09;19.58;;;11.48;;
68247;SDS011;55064;49.636;12.164;2023-05-23T05:46:35;18.17;;;11.40;;
68247;SDS011;55064;49.636;12.164;2023-05-23T05:49:00;16.38;;;11.25;;
68247;SDS011;55064;49.636;12.164;2023-05-23T05:51:28;19.40;;;11.83;;
68247;SDS011;55064;49.636;12.164;2023-05-23T05:53:53;16.67;;;11.18;;
68247;SDS011;55064;49.636;12.164;2023-05-23T05:56:19;16.73;;;11.23;;
68247;SDS011;55064;49.636;12.164;2023-05-23T05:58:46;16.60;;;10.95;;
68247;SDS011;55064;49.636;12.164;2023-05-23T06:01:11;17.37;;;10.50;;
68247;SDS011;55064;49.636;12.164;2023-05-23T06:03:39;17.35;;;10.90;;
68247;SDS011;55064;49.636;12.164;2023-05-23T06:06:06;15.00;;;10.15;;
68247;SDS011;55064;49.636;12.164;2023-05-23T06:08:35;14.13;;;9.57;;
68247;SDS011;55064;49.636;12.164;2023-05-23T06:11:01;13.97;;;9.70;;
68247;SDS011;55064;49.636;12.164;2023-05-23T06:13:26;15.13;;;9.47;;
68247;SDS011;55064;49.636;12.164;2023-05-23T06:15:51;15.75;;;9.18;;
68247;SDS011;55064;49.636;12.164;2023-05-23T06:18:17;15.90;;;9.43;;
68247;SDS011;55064;49.636;12.164;2023-05-23T06:20:42;13.97;;;9.03;;
68247;SDS011;55064;49.636;12.164;2023-05-23T06:23:10;14.73;;;9.50;;
68247;SDS011;55064;49.636;12.164;2023-05-23T06:25:35;15.60;;;9.00;;
68247;SDS011;55064;49.636;12.164;2023-05-23T06:28:03;15.10;;;8.70;;
68247;SDS011;55064;49.636;12.164;2023-05-23T06:30:31;14.97;;;9.00;;
68247;SDS011;55064;49.636;12.164;2023-05-23T06:32:57;13.68;;;8.80;;
68247;SDS011;55064;49.636;12.164;2023-05-23T06:35:22;13.80;;;8.87;;
68247;SDS011;55064;49.636;12.164;2023-05-23T06:37:49;13.57;;;8.17;;
68247;SDS011;55064;49.636;12.164;2023-05-23T06:40:14;14.32;;;9.10;;
68247;SDS011;55064;49.636;12.164;2023-05-23T06:42:40;12.67;;;8.40;;
68247;SDS011;55064;49.636;12.164;2023-05-23T06:45:05;13.07;;;8.23;;
68247;SDS011;55064;49.636;12.164;2023-05-23T06:47:31;12.43;;;7.90;;
68247;SDS011;55064;49.636;12.164;2023-05-23T06:49:57;13.03;;;8.00;;
68247;SDS011;55064;49.636;12.164;2023-05-23T06:52:24;13.13;;;8.53;;
68247;SDS011;55064;49.636;12.164;2023-05-23T06:54:52;11.63;;;7.93;;
68247;SDS011;55064;49.636;12.164;2023-05-23T06:57:19;13.15;;;8.20;;
68247;SDS011;55064;49.636;12.164;2023-05-23T06:59:46;13.00;;;8.10;;
68247;SDS011;55064;49.636;12.164;2023-05-23T07:02:14;13.43;;;8.55;;
68247;SDS011;55064;49.636;12.164;2023-05-23T07:04:40;11.77;;;8.20;;
68247;SDS011;55064;49.636;12.164;2023-05-23T07:07:05;14.05;;;8.90;;
68247;SDS011;55064;49.636;12.164;2023-05-23T07:09:30;12.47;;;8.37;;
68247;SDS011;55064;49.636;12.164;2023-05-23T07:11:56;14.03;;;8.70;;
68247;SDS011;55064;49.636;12.164;2023-05-23T07:14:21;12.40;;;8.27;;
68247;SDS011;55064;49.636;12.164;2023-05-23T07:16:47;11.90;;;7.63;;
68247;SDS011;55064;49.636;12.164;2023-05-23T07:19:15;12.15;;;8.40;;
68247;SDS011;55064;49.636;12.164;2023-05-23T07:21:42;12.33;;;7.93;;
68247;SDS011;55064;49.636;12.164;2023-05-23T07:24:07;12.55;;;8.18;;
68247;SDS011;55064;49.636;12.164;2023-05-23T07:26:32;12.83;;;8.20;;
68247;SDS011;55064;49.636;12.164;2023-05-23T07:28:58;11.27;;;7.88;;
68247;SDS011;55064;49.636;12.164;2023-05-23T07:31:25;11.97;;;7.77;;
68247;SDS011;55064;49.636;12.164;2023-05-23T07:33:51;11.85;;;7.63;;
68247;SDS011;55064;49.636;12.164;2023-05-23T07:36:16;12.53;;;7.70;;
68247;SDS011;55064;49.636;12.164;2023-05-23T07:38:44;12.57;;;8.07;;
68247;SDS011;55064;49.636;12.164;2023-05-23T07:41:09;14.07;;;8.13;;
68247;SDS011;55064;49.636;12.164;2023-05-23T07:43:39;13.05;;;8.00;;
68247;SDS011;55064;49.636;12.164;2023-05-23T07:46:04;13.18;;;8.20;;
68247;SDS011;55064;49.636;12.164;2023-05-23T07:48:30;13.67;;;8.17;;
68247;SDS011;55064;49.636;12.164;2023-05-23T07:50:58;14.38;;;8.30;;
68247;SDS011;55064;49.636;12.164;2023-05-23T07:53:23;12.63;;;7.93;;
68247;SDS011;55064;49.636;12.164;2023-05-23T07:55:48;13.90;;;7.67;;
68247;SDS011;55064;49.636;12.164;2023-05-23T07:58:14;10.93;;;7.57;;
68247;SDS011;55064;49.636;12.164;2023-05-23T08:00:43;12.05;;;7.78;;
68247;SDS011;55064;49.636;12.164;2023-05-23T08:03:09;12.73;;;7.82;;
68247;SDS011;55064;49.636;12.164;2023-05-23T08:05:35;13.20;;;7.90;;
68247;SDS011;55064;49.636;12.164;2023-05-23T08:08:01;13.53;;;8.10;;
68247;SDS011;55064;49.636;12.164;2023-05-23T08:10:27;13.63;;;8.30;;
68247;SDS011;55064;49.636;12.164;2023-05-23T08:12:54;12.77;;;7.63;;
68247;SDS011;55064;49.636;12.164;2023-05-23T08:15:20;14.23;;;8.00;;
68247;SDS011;55064;49.636;12.164;2023-05-23T08:17:47;11.27;;;7.60;;
68247;SDS011;55064;49.636;12.164;2023-05-23T08:20:13;13.35;;;8.23;;
68247;SDS011;55064;49.636;12.164;2023-05-23T08:22:38;11.67;;;7.80;;
68247;SDS011;55064;49.636;12.164;2023-05-23T08:25:04;12.57;;;7.93;;
68247;SDS011;55064;49.636;12.164;2023-05-23T08:27:32;14.27;;;8.07;;
68247;SDS011;55064;49.636;12.164;2023-05-23T08:29:59;12.38;;;8.60;;
68247;SDS011;55064;49.636;12.164;2023-05-23T08:32:28;15.35;;;7.82;;
68247;SDS011;55064;49.636;12.164;2023-05-23T08:34:53;12.93;;;8.00;;
68247;SDS011;55064;49.636;12.164;2023-05-23T08:37:18;12.00;;;7.97;;
68247;SDS011;55064;49.636;12.164;2023-05-23T08:39:46;12.57;;;7.68;;
68247;SDS011;55064;49.636;12.164;2023-05-23T08:42:12;13.30;;;7.80;;
68247;SDS011;55064;49.636;12.164;2023-05-23T08:44:37;12.20;;;7.77;;
68247;SDS011;55064;49.636;12.164;2023-05-23T08:47:05;14.87;;;7.60;;
68247;SDS011;55064;49.636;12.164;2023-05-23T08:49:35;11.25;;;7.57;;
68247;SDS011;55064;49.636;12.164;2023-05-23T08:52:02;11.95;;;7.20;;
68247;SDS011;55064;49.636;12.164;2023-05-23T08:54:28;13.52;;;7.70;;
68247;SDS011;55064;49.636;12.164;2023-05-23T08:56:54;11.90;;;7.17;;
68247;SDS011;55064;49.636;12.164;2023-05-23T08:59:21;11.85;;;6.90;;
68247;SDS011;55064;49.636;12.164;2023-05-23T09:01:46;11.80;;;7.30;;
68247;SDS011;55064;49.636;12.164;2023-05-23T09:04:12;10.35;;;6.85;;
68247;SDS011;55064;49.636;12.164;2023-05-23T09:06:40;10.90;;;6.97;;
68247;SDS011;55064;49.636;12.164;2023-05-23T09:09:06;11.57;;;6.80;;
68247;SDS011;55064;49.636;12.164;2023-05-23T09:11:32;10.45;;;6.47;;
68247;SDS011;55064;49.636;12.164;2023-05-23T09:13:59;11.82;;;6.60;;
68247;SDS011;55064;49.636;12.164;2023-05-23T09:16:30;10.13;;;6.72;;
68247;SDS011;55064;49.636;12.164;2023-05-23T09:18:59;10.23;;;6.23;;
68247;SDS011;55064;49.636;12.164;2023-05-23T09:21:37;11.00;;;6.50;;
68247;SDS011;55064;49.636;12.164;2023-05-23T09:24:07;11.25;;;6.63;;
68247;SDS011;55064;49.636;12.164;2023-05-23T09:26:32;11.77;;;6.77;;
68247;SDS011;55064;49.636;12.164;2023-05-23T09:29:03;10.68;;;7.10;;
68247;SDS011;55064;49.636;12.164;2023-05-23T09:31:30;12.25;;;6.85;;
68247;SDS011;55064;49.636;12.164;2023-05-23T09:33:57;10.93;;;6.90;;
68247;SDS011;55064;49.636;12.164;2023-05-23T09:36:26;11.43;;;7.28;;
68247;SDS011;55064;49.636;12.164;2023-05-23T09:39:02;11.32;;;7.40;;
68247;SDS011;55064;49.636;12.164;2023-05-23T09:41:32;11.48;;;7.45;;
68247;SDS011;55064;49.636;12.164;2023-05-23T09:43:59;12.20;;;7.47;;
68247;SDS011;55064;49.636;12.164;2023-05-23T09:46:30;11.93;;;7.20;;
68247;SDS011;55064;49.636;12.164;2023-05-23T09:48:55;12.50;;;7.60;;
68247;SDS011;55064;49.636;12.164;2023-05-23T09:51:24;14.32;;;8.15;;
68247;SDS011;55064;49.636;12.164;2023-05-23T09:53:49;14.10;;;8.00;;
68247;SDS011;55064;49.636;12.164;2023-05-23T09:56:18;14.25;;;7.97;;
68247;SDS011;55064;49.636;12.164;2023-05-23T09:58:45;12.63;;;7.57;;
68247;SDS011;55064;49.636;12.164;2023-05-23T10:01:12;14.87;;;7.77;;
68247;SDS011;55064;49.636;12.164;2023-05-23T10:03:47;13.73;;;7.57;;
68247;SDS011;55064;49.636;12.164;2023-05-23T10:07:00;12.05;;;7.43;;
68247;SDS011;55064;49.636;12.164;2023-05-23T10:09:09;11.85;;;7.13;;
68247;SDS011;55064;49.636;12.164;2023-05-23T10:14:44;12.13;;;7.03;;
68247;SDS011;55064;49.636;12.164;2023-05-23T10:17:19;12.63;;;7.25;;
68247;SDS011;55064;49.636;12.164;2023-05-23T10:19:58;11.07;;;6.90;;
68247;SDS011;55064;49.636;12.164;2023-05-23T10:22:28;11.95;;;6.85;;
68247;SDS011;55064;49.636;12.164;2023-05-23T10:24:55;11.13;;;6.70;;
68247;SDS011;55064;49.636;12.164;2023-05-23T10:27:22;12.70;;;7.00;;
68247;SDS011;55064;49.636;12.164;2023-05-23T10:29:48;11.88;;;6.78;;
68247;SDS011;55064;49.636;12.164;2023-05-23T10:32:13;11.17;;;6.83;;
68247;SDS011;55064;49.636;12.164;2023-05-23T10:43:15;11.67;;;7.00;;
68247;SDS011;55064;49.636;12.164;2023-05-23T10:45:48;11.20;;;6.82;;
68247;SDS011;55064;49.636;12.164;2023-05-23T10:51:11;12.38;;;7.65;;
68247;SDS011;55064;49.636;12.164;2023-05-23T10:53:39;11.40;;;7.50;;
68247;SDS011;55064;49.636;12.164;2023-05-23T10:56:09;12.03;;;7.30;;
68247;SDS011;55064;49.636;12.164;2023-05-23T10:58:44;11.55;;;7.07;;
68247;SDS011;55064;49.636;12.164;2023-05-23T11:01:12;12.10;;;6.53;;
68247;SDS011;55064;49.636;12.164;2023-05-23T11:06:47;11.02;;;6.80;;
68247;SDS011;55064;49.636;12.164;2023-05-23T11:09:15;11.03;;;6.33;;
68247;SDS011;55064;49.636;12.164;2023-05-23T11:16:56;9.68;;;6.18;;
68247;SDS011;55064;49.636;12.164;2023-05-23T11:19:22;9.77;;;6.38;;
68247;SDS011;55064;49.636;12.164;2023-05-23T11:21:55;12.33;;;7.10;;
68247;SDS011;55064;49.636;12.164;2023-05-23T11:24:21;11.68;;;6.90;;
68247;SDS011;55064;49.636;12.164;2023-05-23T11:26:51;10.95;;;6.45;;
68247;SDS011;55064;49.636;12.164;2023-05-23T11:29:18;10.02;;;6.72;;
68247;SDS011;55064;49.636;12.164;2023-05-23T11:31:43;11.83;;;6.30;;
68247;SDS011;55064;49.636;12.164;2023-05-23T11:34:09;9.60;;;6.80;;
68247;SDS011;55064;49.636;12.164;2023-05-23T11:36:36;10.70;;;6.10;;
68247;SDS011;55064;49.636;12.164;2023-05-23T11:39:01;10.45;;;6.50;;
68247;SDS011;55064;49.636;12.164;2023-05-23T11:41:29;11.47;;;6.30;;
68247;SDS011;55064;49.636;12.164;2023-05-23T11:43:55;10.68;;;6.50;;
68247;SDS011;55064;49.636;12.164;2023-05-23T11:46:22;8.90;;;5.87;;
68247;SDS011;55064;49.636;12.164;2023-05-23T11:48:48;9.82;;;5.55;;
68247;SDS011;55064;49.636;12.164;2023-05-23T11:51:14;9.40;;;5.60;;
68247;SDS011;55064;49.636;12.164;2023-05-23T11:53:42;11.32;;;5.93;;
68247;SDS011;55064;49.636;12.164;2023-05-23T11:56:13;10.73;;;6.50;;
68247;SDS011;55064;49.636;12.164;2023-05-23T11:58:39;12.38;;;6.88;;
68247;SDS011;55064;49.636;12.164;2023-05-23T12:01:08;10.47;;;6.10;;
68247;SDS011;55064;49.636;12.164;2023-05-23T12:03:45;13.23;;;6.50;;
68247;SDS011;55064;49.636;12.164;2023-05-23T12:06:17;9.20;;;6.07;;
68247;SDS011;55064;49.636;12.164;2023-05-23T12:08:43;8.60;;;5.30;;
68247;SDS011;55064;49.636;12.164;2023-05-23T12:11:09;10.17;;;6.23;;
68247;SDS011;55064;49.636;12.164;2023-05-23T12:13:36;10.25;;;5.75;;
68247;SDS011;55064;49.636;12.164;2023-05-23T12:16:05;8.00;;;5.32;;
68247;SDS011;55064;49.636;12.164;2023-05-23T12:18:32;10.53;;;5.40;;
68247;SDS011;55064;49.636;12.164;2023-05-23T12:21:01;9.07;;;5.63;;
68247;SDS011;55064;49.636;12.164;2023-05-23T12:23:32;10.05;;;5.30;;
68247;SDS011;55064;49.636;12.164;2023-05-23T12:25:58;9.10;;;5.43;;
68247;SDS011;55064;49.636;12.164;2023-05-23T12:31:17;8.63;;;5.13;;
68247;SDS011;55064;49.636;12.164;2023-05-23T12:33:47;8.70;;;4.75;;
68247;SDS011;55064;49.636;12.164;2023-05-23T12:36:14;10.65;;;5.30;;
68247;SDS011;55064;49.636;12.164;2023-05-23T12:38:46;9.13;;;4.47;;
68247;SDS011;55064;49.636;12.164;2023-05-23T12:41:15;6.65;;;3.90;;
68247;SDS011;55064;49.636;12.164;2023-05-23T12:43:53;7.77;;;4.10;;
68247;SDS011;55064;49.636;12.164;2023-05-23T12:46:20;9.43;;;4.38;;
68247;SDS011;55064;49.636;12.164;2023-05-23T12:48:48;7.13;;;3.85;;
68247;SDS011;55064;49.636;12.164;2023-05-23T12:51:14;8.02;;;3.83;;
68247;SDS011;55064;49.636;12.164;2023-05-23T12:53:39;7.27;;;3.97;;
68247;SDS011;55064;49.636;12.164;2023-05-23T12:56:05;6.60;;;3.40;;
68247;SDS011;55064;49.636;12.164;2023-05-23T12:58:30;6.65;;;3.30;;
68247;SDS011;55064;49.636;12.164;2023-05-23T13:01:00;7.40;;;3.13;;
68247;SDS011;55064;49.636;12.164;2023-05-23T13:03:26;7.13;;;3.50;;
68247;SDS011;55064;49.636;12.164;2023-05-23T13:05:54;6.63;;;3.60;;
68247;SDS011;55064;49.636;12.164;2023-05-23T13:08:21;8.48;;;3.30;;
68247;SDS011;55064;49.636;12.164;2023-05-23T13:10:48;5.97;;;3.05;;
68247;SDS011;55064;49.636;12.164;2023-05-23T13:13:18;5.67;;;2.83;;
68247;SDS011;55064;49.636;12.164;2023-05-23T13:15:45;7.68;;;2.95;;
68247;SDS011;55064;49.636;12.164;2023-05-23T13:18:10;5.40;;;2.95;;
68247;SDS011;55064;49.636;12.164;2023-05-23T13:20:38;6.38;;;2.90;;
68247;SDS011;55064;49.636;12.164;2023-05-23T13:23:05;7.63;;;3.13;;
68247;SDS011;55064;49.636;12.164;2023-05-23T13:25:33;5.85;;;3.00;;
68247;SDS011;55064;49.636;12.164;2023-05-23T13:28:01;5.78;;;3.00;;
68247;SDS011;55064;49.636;12.164;2023-05-23T13:30:30;9.80;;;3.20;;
68247;SDS011;55064;49.636;12.164;2023-05-23T13:32:58;6.60;;;3.05;;
68247;SDS011;55064;49.636;12.164;2023-05-23T13:35:23;6.50;;;3.05;;
68247;SDS011;55064;49.636;12.164;2023-05-23T13:37:48;6.10;;;2.73;;
68247;SDS011;55064;49.636;12.164;2023-05-23T13:40:21;5.78;;;3.08;;
68247;SDS011;55064;49.636;12.164;2023-05-23T13:42:47;6.53;;;3.07;;
68247;SDS011;55064;49.636;12.164;2023-05-23T13:45:14;7.28;;;3.30;;
68247;SDS011;55064;49.636;12.164;2023-05-23T13:47:40;6.35;;;3.28;;
68247;SDS011;55064;49.636;12.164;2023-05-23T13:50:06;6.20;;;3.27;;
68247;SDS011;55064;49.636;12.164;2023-05-23T13:52:32;6.47;;;3.30;;
68247;SDS011;55064;49.636;12.164;2023-05-23T13:54:59;7.30;;;3.10;;
68247;SDS011;55064;49.636;12.164;2023-05-23T13:57:28;5.80;;;2.83;;
68247;SDS011;55064;49.636;12.164;2023-05-23T13:59:53;5.93;;;2.90;;
68247;SDS011;55064;49.636;12.164;2023-05-23T14:02:19;6.13;;;2.90;;
68247;SDS011;55064;49.636;12.164;2023-05-23T14:04:48;8.05;;;3.30;;
68247;SDS011;55064;49.636;12.164;2023-05-23T14:07:14;6.23;;;2.93;;
68247;SDS011;55064;49.636;12.164;2023-05-23T14:09:40;7.00;;;3.05;;
68247;SDS011;55064;49.636;12.164;2023-05-23T14:12:06;5.60;;;2.83;;
68247;SDS011;55064;49.636;12.164;2023-05-23T14:14:31;9.15;;;3.15;;
68247;SDS011;55064;49.636;12.164;2023-05-23T14:16:57;7.93;;;2.50;;
68247;SDS011;55064;49.636;12.164;2023-05-23T14:19:22;5.30;;;2.40;;
68247;SDS011;55064;49.636;12.164;2023-05-23T14:21:49;6.17;;;2.67;;
68247;SDS011;55064;49.636;12.164;2023-05-23T14:24:14;5.67;;;2.60;;
68247;SDS011;55064;49.636;12.164;2023-05-23T14:26:42;6.03;;;2.55;;
68247;SDS011;55064;49.636;12.164;2023-05-23T14:29:09;5.03;;;2.47;;
68247;SDS011;55064;49.636;12.164;2023-05-23T14:31:35;5.13;;;2.40;;
68247;SDS011;55064;49.636;12.164;2023-05-23T14:34:03;4.90;;;2.25;;
68247;SDS011;55064;49.636;12.164;2023-05-23T14:36:29;5.03;;;2.63;;
68247;SDS011;55064;49.636;12.164;2023-05-23T14:38:55;6.72;;;2.50;;
68247;SDS011;55064;49.636;12.164;2023-05-23T14:41:21;5.50;;;2.23;;
68247;SDS011;55064;49.636;12.164;2023-05-23T14:43:46;5.95;;;2.60;;
68247;SDS011;55064;49.636;12.164;2023-05-23T14:46:12;7.97;;;2.67;;
68247;SDS011;55064;49.636;12.164;2023-05-23T14:48:39;7.18;;;2.53;;
68247;SDS011;55064;49.636;12.164;2023-05-23T14:51:04;7.13;;;2.70;;
68247;SDS011;55064;49.636;12.164;2023-05-23T14:53:31;5.95;;;2.50;;
68247;SDS011;55064;49.636;12.164;2023-05-23T14:55:56;5.10;;;2.37;;
68247;SDS011;55064;49.636;12.164;2023-05-23T14:58:21;6.10;;;2.60;;
68247;SDS011;55064;49.636;12.164;2023-05-23T15:00:49;5.47;;;2.70;;
68247;SDS011;55064;49.636;12.164;2023-05-23T15:03:16;7.20;;;3.00;;
68247;SDS011;55064;49.636;12.164;2023-05-23T15:05:42;5.73;;;2.70;;
68247;SDS011;55064;49.636;12.164;2023-05-23T15:08:07;5.70;;;2.92;;
68247;SDS011;55064;49.636;12.164;2023-05-23T15:10:33;7.03;;;3.35;;
68247;SDS011;55064;49.636;12.164;2023-05-23T15:13:06;5.80;;;2.90;;
68247;SDS011;55064;49.636;12.164;2023-05-23T15:15:46;6.72;;;2.83;;
68247;SDS011;55064;49.636;12.164;2023-05-23T15:21:13;6.43;;;3.30;;
68247;SDS011;55064;49.636;12.164;2023-05-23T15:23:38;6.25;;;3.05;;
68247;SDS011;55064;49.636;12.164;2023-05-23T15:26:12;5.87;;;3.20;;
68247;SDS011;55064;49.636;12.164;2023-05-23T15:28:56;6.10;;;3.22;;
68247;SDS011;55064;49.636;12.164;2023-05-23T15:34:18;7.38;;;3.08;;
68247;SDS011;55064;49.636;12.164;2023-05-23T15:36:50;6.38;;;3.30;;
68247;SDS011;55064;49.636;12.164;2023-05-23T15:42:17;6.93;;;3.10;;
68247;SDS011;55064;49.636;12.164;2023-05-23T15:44:51;7.32;;;3.10;;
68247;SDS011;55064;49.636;12.164;2023-05-23T15:47:16;7.20;;;3.00;;
68247;SDS011;55064;49.636;12.164;2023-05-23T15:49:56;6.13;;;2.97;;
68247;SDS011;55064;49.636;12.164;2023-05-23T15:58:12;5.78;;;2.78;;
68247;SDS011;55064;49.636;12.164;2023-05-23T16:00:37;7.00;;;3.10;;
68247;SDS011;55064;49.636;12.164;2023-05-23T16:03:03;8.30;;;3.38;;
68247;SDS011;55064;49.636;12.164;2023-05-23T16:05:28;5.80;;;2.70;;
68247;SDS011;55064;49.636;12.164;2023-05-23T16:07:54;6.93;;;3.30;;
68247;SDS011;55064;49.636;12.164;2023-05-23T16:10:20;6.03;;;3.10;;
68247;SDS011;55064;49.636;12.164;2023-05-23T16:12:47;6.30;;;3.10;;
68247;SDS011;55064;49.636;12.164;2023-05-23T16:15:12;6.53;;;3.20;;
68247;SDS011;55064;49.636;12.164;2023-05-23T16:17:38;7.03;;;3.20;;
68247;SDS011;55064;49.636;12.164;2023-05-23T16:20:06;5.53;;;2.45;;
68247;SDS011;55064;49.636;12.164;2023-05-23T16:22:33;5.57;;;2.80;;
68247;SDS011;55064;49.636;12.164;2023-05-23T16:24:58;5.80;;;2.90;;
68247;SDS011;55064;49.636;12.164;2023-05-23T16:27:24;6.23;;;3.00;;
68247;SDS011;55064;49.636;12.164;2023-05-23T16:29:51;6.20;;;2.97;;
68247;SDS011;55064;49.636;12.164;2023-05-23T16:32:18;5.50;;;2.70;;
68247;SDS011;55064;49.636;12.164;2023-05-23T16:34:43;6.03;;;2.85;;
68247;SDS011;55064;49.636;12.164;2023-05-23T16:37:09;6.00;;;2.97;;
68247;SDS011;55064;49.636;12.164;2023-05-23T16:39:34;6.90;;;3.23;;